Time;durP1;ratioP1;P1;durP2;ratioP2;P2;SDS_P1;SDS_P2;PMS_P1;PMS_P2;Temp;Humidity;BMP_temperature;BMP_pressure;BME280_temperature;BME280_humidity;BME280_pressure;Samples;Min_cycle;Max_cycle;Signal;HPM_P1;HPM_P2
2022/03/09 00:00:18;;;;;;;14.52;3.83;;;;;;;16.59;42.27;100320.94;5074416;28;20478;-79
2022/03/09 00:02:44;;;;;;;19.65;4.88;;;;;;;16.55;42.80;100309.06;5074387;28;20090;-78
2022/03/09 00:05:10;;;;;;;13.63;4.00;;;;;;;16.80;41.71;100314.28;5074321;28;20112;-80
2022/03/09 00:07:36;;;;;;;16.75;4.22;;;;;;;16.80;42.11;100317.06;5074250;28;20050;-79
2022/03/09 00:10:04;;;;;;;19.58;5.20;;;;;;;16.91;41.68;100310.56;5056288;28;20024;-80
2022/03/09 00:12:30;;;;;;;20.58;4.35;;;;;;;16.95;41.55;100298.81;5056174;28;20115;-80
2022/03/09 00:14:55;;;;;;;26.40;5.63;;;;;;;17.04;41.56;100296.59;5074006;28;20525;-79
2022/03/09 00:17:21;;;;;;;14.93;4.05;;;;;;;16.95;41.52;100296.84;5074012;28;20032;-79
2022/03/09 00:19:47;;;;;;;16.63;3.80;;;;;;;16.73;42.26;100303.13;5074073;28;20139;-79
2022/03/09 00:22:13;;;;;;;19.17;3.60;;;;;;;16.73;42.37;100300.38;5073587;28;20123;-80
2022/03/09 00:24:38;;;;;;;22.38;4.43;;;;;;;16.91;41.75;100294.00;5073890;28;20040;-80
2022/03/09 00:27:04;;;;;;;25.95;4.28;;;;;;;16.97;41.79;100290.94;5073886;28;20032;-80
2022/03/09 00:29:29;;;;;;;19.65;4.82;;;;;;;16.97;41.72;100296.47;5073456;28;20066;-81
2022/03/09 00:31:55;;;;;;;23.55;5.57;;;;;;;16.86;42.05;100308.13;5055456;28;20035;-79
2022/03/09 00:34:20;;;;;;;15.60;4.32;;;;;;;16.96;41.69;100298.44;5073208;28;20044;-80
2022/03/09 00:36:46;;;;;;;13.15;3.92;;;;;;;17.01;41.57;100300.91;5073725;28;20086;-79
2022/03/09 00:39:12;;;;;;;16.08;3.78;;;;;;;16.99;41.67;100311.47;5072395;28;20115;-78
2022/03/09 00:41:38;;;;;;;19.15;5.18;;;;;;;17.15;41.08;100312.19;5055636;28;20025;-79
2022/03/09 00:44:04;;;;;;;18.08;3.70;;;;;;;17.09;41.29;100313.66;5073514;28;20032;-78
2022/03/09 00:46:30;;;;;;;21.20;5.05;;;;;;;16.96;41.78;100303.16;5073491;28;20021;-78
2022/03/09 00:48:55;;;;;;;13.85;3.75;;;;;;;16.94;41.50;100311.00;5073384;28;20086;-78
2022/03/09 00:51:22;;;;;;;23.17;4.05;;;;;;;17.07;41.40;100315.16;5073387;28;20032;-79
2022/03/09 00:53:47;;;;;;;20.17;4.85;;;;;;;17.10;41.31;100309.72;5073261;28;20036;-78
2022/03/09 00:56:14;;;;;;;18.52;4.88;;;;;;;17.15;41.05;100298.41;5073068;28;20048;-78
2022/03/09 00:58:40;;;;;;;22.08;4.75;;;;;;;17.31;40.71;100303.00;5073240;28;20024;-78
2022/03/09 01:01:06;;;;;;;18.45;4.35;;;;;;;17.19;40.94;100282.69;5073063;28;20028;-79
2022/03/09 01:03:33;;;;;;;18.35;4.05;;;;;;;17.15;40.83;100278.25;5073205;28;20032;-79
2022/03/09 01:05:59;;;;;;;18.27;4.07;;;;;;;17.19;41.00;100288.19;5055176;28;20036;-79
2022/03/09 01:08:24;;;;;;;16.25;4.15;;;;;;;17.12;40.98;100285.31;5071924;28;20086;-79
2022/03/09 01:10:50;;;;;;;12.95;3.63;;;;;;;17.16;41.11;100285.38;5073087;28;20028;-79
2022/03/09 01:13:16;;;;;;;20.90;3.28;;;;;;;17.16;40.99;100297.22;5072944;28;20029;-80
2022/03/09 01:15:41;;;;;;;12.60;2.78;;;;;;;17.28;40.70;100285.19;5072957;28;20055;-79
2022/03/09 01:18:07;;;;;;;18.52;4.30;;;;;;;17.26;40.81;100284.75;5072967;28;20529;-79
2022/03/09 01:20:33;;;;;;;14.63;4.13;;;;;;;17.23;40.81;100277.22;5072891;28;20025;-79
2022/03/09 01:22:58;;;;;;;16.42;3.92;;;;;;;17.24;40.80;100267.78;5054941;28;20036;-79
2022/03/09 01:25:24;;;;;;;22.58;4.93;;;;;;;17.29;40.79;100266.66;5072821;28;20029;-79
2022/03/09 01:27:49;;;;;;;18.52;4.35;;;;;;;17.12;41.09;100270.72;5072821;28;20466;-79
2022/03/09 01:30:15;;;;;;;17.55;3.90;;;;;;;17.22;40.83;100252.72;5072703;28;20028;-79
2022/03/09 01:32:41;;;;;;;18.25;3.30;;;;;;;17.22;40.65;100256.28;5072708;28;20036;-79
2022/03/09 01:35:07;;;;;;;19.33;4.13;;;;;;;17.39;40.34;100243.94;5072643;28;20032;-79
2022/03/09 01:37:33;;;;;;;16.83;3.45;;;;;;;17.22;40.59;100233.41;5054663;28;20040;-79
2022/03/09 01:39:58;;;;;;;23.02;3.80;;;;;;;17.22;40.86;100241.69;5072698;28;20028;-79
2022/03/09 01:42:24;;;;;;;18.25;3.63;;;;;;;17.40;40.55;100231.72;5072658;28;20532;-79
2022/03/09 01:44:49;;;;;;;23.45;4.25;;;;;;;17.32;40.48;100233.59;5072459;28;20032;-79
2022/03/09 01:47:15;;;;;;;17.80;4.05;;;;;;;16.76;41.90;100236.16;5072538;28;20078;-79
2022/03/09 01:49:41;;;;;;;20.15;4.10;;;;;;;17.16;40.98;100230.97;5072521;28;20075;-79
2022/03/09 01:52:07;;;;;;;12.82;3.10;;;;;;;17.20;40.98;100229.03;5072403;28;20039;-80
2022/03/09 01:54:33;;;;;;;13.90;4.03;;;;;;;16.89;41.68;100229.31;5072419;28;20036;-80
2022/03/09 01:57:00;;;;;;;18.73;3.10;;;;;;;17.16;41.07;100219.94;5072220;28;20499;-79
2022/03/09 01:59:26;;;;;;;14.80;3.67;;;;;;;17.30;40.56;100215.78;5072373;28;20028;-80
2022/03/09 02:01:52;;;;;;;13.70;3.10;;;;;;;17.35;40.62;100199.69;5071195;28;20503;-80
2022/03/09 02:04:18;;;;;;;20.17;4.05;;;;;;;17.22;40.83;100194.75;5071381;28;20403;-79
2022/03/09 02:06:45;;;;;;;13.25;3.50;;;;;;;17.33;40.63;100195.72;5072262;28;20471;-80
2022/03/09 02:11:57;;;;;;;12.23;2.72;;;;;;;17.29;40.06;100161.72;5072776;28;20074;-80
2022/03/09 02:14:50;;;;;;;16.08;3.72;;;;;;;17.37;40.02;100160.66;5058356;28;20552;-79
2022/03/09 02:17:18;;;;;;;16.08;4.00;;;;;;;17.28;40.26;100149.09;5073977;28;20029;-80
2022/03/09 02:19:46;;;;;;;14.73;3.83;;;;;;;17.34;40.02;100169.69;5076370;28;20036;-80
2022/03/09 02:22:11;;;;;;;15.30;3.00;;;;;;;17.31;40.04;100157.44;5076378;28;20051;-79
2022/03/09 02:24:37;;;;;;;21.25;4.18;;;;;;;17.36;40.00;100165.38;5076326;28;20021;-80
2022/03/09 02:27:03;;;;;;;14.98;3.92;;;;;;;17.07;40.35;100153.13;5076141;28;20021;-79
2022/03/09 02:29:29;;;;;;;16.88;4.15;;;;;;;17.37;39.87;100147.66;5076258;28;20021;-79
2022/03/09 02:31:54;;;;;;;13.43;4.43;;;;;;;17.39;39.93;100144.53;5076163;28;20024;-79
2022/03/09 02:34:20;;;;;;;15.75;3.38;;;;;;;17.37;39.92;100130.28;5076007;28;20029;-79
2022/03/09 02:36:45;;;;;;;9.23;2.92;;;;;;;17.32;39.90;100125.91;5058118;28;20056;-79
2022/03/09 02:39:11;;;;;;;23.88;4.20;;;;;;;17.47;39.71;100126.88;5075972;28;20029;-80
2022/03/09 02:41:37;;;;;;;14.77;3.38;;;;;;;17.35;40.03;100122.38;5075989;28;20027;-79
2022/03/09 02:44:03;;;;;;;28.80;3.97;;;;;;;17.40;40.01;100116.53;5075840;28;20025;-79
2022/03/09 02:46:29;;;;;;;17.63;4.55;;;;;;;17.31;40.26;100104.97;5075770;28;20024;-79
2022/03/09 02:48:55;;;;;;;18.70;4.40;;;;;;;17.37;40.41;100111.75;5057808;28;20081;-79
2022/03/09 02:51:21;;;;;;;20.45;4.60;;;;;;;17.42;40.67;100121.69;5075726;28;20028;-79
2022/03/09 02:53:48;;;;;;;26.70;4.40;;;;;;;17.12;41.43;100107.84;5075627;28;20490;-79
2022/03/09 02:56:15;;;;;;;25.80;5.13;;;;;;;17.13;41.68;100115.75;5075311;28;20379;-79
2022/03/09 02:58:43;;;;;;;18.00;4.00;;;;;;;17.24;41.47;100110.41;5075417;28;20507;-79
2022/03/09 03:01:09;;;;;;;18.23;5.15;;;;;;;17.20;41.63;100109.53;5075595;28;20079;-79
2022/03/09 03:03:34;;;;;;;22.02;5.30;;;;;;;17.07;42.08;100106.19;5075552;28;20024;-79
2022/03/09 03:06:00;;;;;;;15.85;4.00;;;;;;;17.10;41.99;100108.22;5075480;28;20539;-79
2022/03/09 03:08:25;;;;;;;26.27;4.47;;;;;;;17.37;41.36;100113.72;5075418;28;20051;-80
2022/03/09 03:10:51;;;;;;;14.25;3.30;;;;;;;17.34;41.41;100120.00;5075380;28;20029;-79
2022/03/09 03:13:17;;;;;;;16.63;4.53;;;;;;;17.27;41.44;100114.38;5075321;28;20028;-79
2022/03/09 03:15:42;;;;;;;18.95;5.40;;;;;;;17.07;41.71;100113.69;5075335;28;20032;-79
2022/03/09 03:18:08;;;;;;;22.48;5.15;;;;;;;16.96;41.82;100130.09;5075276;28;20431;-79
2022/03/09 03:20:34;;;;;;;23.63;4.13;;;;;;;17.05;41.48;100110.50;5057291;28;20127;-79
2022/03/09 03:22:59;;;;;;;13.45;3.28;;;;;;;17.02;41.49;100116.78;5075190;28;20482;-79
2022/03/09 03:25:25;;;;;;;15.63;3.75;;;;;;;16.89;41.87;100121.69;5057205;28;20035;-79
2022/03/09 03:27:50;;;;;;;17.90;3.50;;;;;;;17.05;41.19;100116.81;5075087;28;20033;-79
2022/03/09 03:30:16;;;;;;;17.70;3.30;;;;;;;17.28;40.68;100097.44;5075057;28;20029;-79
2022/03/09 03:32:42;;;;;;;10.60;2.80;;;;;;;17.25;40.85;100100.16;5056980;28;20032;-79
2022/03/09 03:35:08;;;;;;;11.23;3.00;;;;;;;17.30;40.75;100097.03;5074942;28;20024;-80
2022/03/09 03:37:33;;;;;;;17.33;3.88;;;;;;;17.54;40.15;100099.38;5074997;28;20042;-79
2022/03/09 03:39:59;;;;;;;22.00;4.22;;;;;;;17.59;39.93;100090.72;5074944;28;20029;-79
2022/03/09 03:42:25;;;;;;;18.88;4.35;;;;;;;17.53;40.21;100085.91;5074888;28;20028;-79
2022/03/09 03:44:51;;;;;;;21.90;4.32;;;;;;;17.76;39.64;100075.59;5074749;28;20037;-80
2022/03/09 03:47:16;;;;;;;14.00;4.43;;;;;;;17.67;40.00;100072.28;5074790;28;20028;-79
2022/03/09 03:49:42;;;;;;;20.80;4.95;;;;;;;17.87;39.76;100086.75;5074761;28;20059;-79
2022/03/09 03:52:07;;;;;;;16.58;4.13;;;;;;;17.82;39.70;100076.81;5074624;28;20073;-80
2022/03/09 03:54:33;;;;;;;17.00;5.03;;;;;;;17.95;39.27;100071.84;5074555;28;20056;-79
2022/03/09 03:56:58;;;;;;;16.13;3.58;;;;;;;17.92;39.36;100069.84;5074342;28;20127;-79
2022/03/09 03:59:24;;;;;;;17.98;4.43;;;;;;;18.02;39.22;100061.66;5074474;28;20071;-80
2022/03/09 04:01:50;;;;;;;16.50;3.53;;;;;;;18.00;39.21;100068.75;5074557;28;20063;-79
2022/03/09 04:04:15;;;;;;;14.63;3.28;;;;;;;18.03;39.19;100068.75;5074428;28;20232;-80
2022/03/09 04:06:41;;;;;;;16.80;3.55;;;;;;;17.80;39.65;100070.88;5056453;28;20546;-79
2022/03/09 04:09:06;;;;;;;27.10;4.47;;;;;;;17.98;39.43;100062.78;5074435;28;20100;-79
2022/03/09 04:11:32;;;;;;;26.83;3.95;;;;;;;17.87;39.91;100043.31;5074303;28;20102;-79
2022/03/09 04:13:57;;;;;;;19.55;4.90;;;;;;;17.84;40.03;100051.59;5074195;28;20471;-79
2022/03/09 04:16:23;;;;;;;26.48;5.70;;;;;;;17.88;39.99;100044.91;5074294;28;20182;-79
2022/03/09 04:18:48;;;;;;;23.83;5.13;;;;;;;17.92;39.83;100044.97;5074108;28;20032;-79
2022/03/09 04:21:14;;;;;;;22.80;5.20;;;;;;;17.72;40.42;100039.63;5074098;28;20117;-79
2022/03/09 04:23:39;;;;;;;20.63;6.20;;;;;;;17.72;40.22;100047.91;5074016;28;20025;-79
2022/03/09 04:26:08;;;;;;;20.88;4.95;;;;;;;17.56;40.87;100041.78;5056015;28;20035;-80
2022/03/09 04:28:33;;;;;;;19.98;4.47;;;;;;;17.65;40.46;100041.47;5073983;28;20387;-79
2022/03/09 04:30:59;;;;;;;23.23;5.13;;;;;;;17.69;40.59;100042.31;5073854;28;20058;-79
2022/03/09 04:33:25;;;;;;;23.30;6.13;;;;;;;17.59;40.95;100045.75;5073724;28;20025;-80
2022/03/09 04:35:51;;;;;;;23.52;6.10;;;;;;;17.69;40.83;100040.34;5073298;28;20086;-79
2022/03/09 04:38:17;;;;;;;15.00;4.68;;;;;;;17.72;40.69;100041.59;5055734;28;20032;-79
2022/03/09 04:40:43;;;;;;;21.35;4.80;;;;;;;17.75;40.59;100044.38;5073780;28;20103;-79
2022/03/09 04:43:08;;;;;;;21.88;4.28;;;;;;;17.69;40.89;100037.59;5073710;28;20048;-80
2022/03/09 04:45:34;;;;;;;19.35;4.70;;;;;;;17.65;40.89;100036.75;5073510;28;20058;-79
2022/03/09 04:47:59;;;;;;;19.77;5.10;;;;;;;17.61;40.90;100052.50;5055550;28;20031;-79
2022/03/09 04:50:25;;;;;;;27.92;4.70;;;;;;;17.40;41.70;100046.72;5073539;28;20410;-79
2022/03/09 04:52:51;;;;;;;28.67;5.15;;;;;;;17.28;41.88;100046.94;5073310;28;20036;-80
2022/03/09 04:55:16;;;;;;;19.50;6.00;;;;;;;17.50;41.44;100048.00;5073426;28;20032;-79
2022/03/09 04:57:42;;;;;;;18.55;4.70;;;;;;;17.59;41.39;100048.50;5073168;28;20044;-79
2022/03/09 05:00:08;;;;;;;21.23;4.32;;;;;;;17.54;41.21;100035.84;5055394;28;20020;-79
2022/03/09 05:02:34;;;;;;;21.23;5.00;;;;;;;17.46;41.58;100042.44;5073266;28;20074;-80
2022/03/09 05:05:00;;;;;;;22.10;5.40;;;;;;;17.61;41.16;100038.69;5073285;28;20044;-80
2022/03/09 05:07:26;;;;;;;18.33;4.22;;;;;;;17.40;41.63;100049.47;5073261;28;20024;-79
2022/03/09 05:09:51;;;;;;;29.38;5.05;;;;;;;17.36;41.65;100034.81;5073245;28;20024;-80
2022/03/09 05:12:17;;;;;;;16.10;4.22;;;;;;;17.56;41.38;100035.44;5072963;28;20032;-80
2022/03/09 05:14:42;;;;;;;28.13;5.15;;;;;;;17.64;41.11;100034.34;5073099;28;20020;-79
2022/03/09 05:17:08;;;;;;;18.90;5.10;;;;;;;17.63;41.39;100050.16;5073007;28;20433;-80
2022/03/09 05:19:34;;;;;;;34.45;5.90;;;;;;;17.64;41.34;100042.66;5073001;28;20393;-79
2022/03/09 05:21:59;;;;;;;30.23;7.40;;;;;;;17.79;41.09;100046.41;5072901;28;20471;-80
2022/03/09 05:24:25;;;;;;;32.08;5.88;;;;;;;17.77;41.38;100046.00;5072896;28;20068;-79
2022/03/09 05:26:51;;;;;;;20.05;5.88;;;;;;;17.80;41.30;100045.22;5072869;28;20074;-79
2022/03/09 05:29:16;;;;;;;30.67;8.32;;;;;;;17.86;41.35;100040.94;5072863;28;20028;-79
2022/03/09 05:31:44;;;;;;;26.30;6.50;;;;;;;17.93;41.20;100046.56;5072759;28;20024;-80
2022/03/09 05:34:11;;;;;;;18.73;6.30;;;;;;;17.67;41.90;100048.19;5054738;28;20029;-80
2022/03/09 05:36:36;;;;;;;22.80;5.13;;;;;;;18.01;41.04;100054.53;5072735;28;20035;-79
2022/03/09 05:39:04;;;;;;;27.67;5.55;;;;;;;17.85;41.63;100053.19;5072671;28;20020;-79
2022/03/09 05:41:29;;;;;;;28.83;6.25;;;;;;;17.98;41.50;100048.94;5072721;28;20410;-79
2022/03/09 05:43:57;;;;;;;28.77;6.13;;;;;;;18.00;41.27;100052.16;5054778;28;20029;-80
2022/03/09 05:46:23;;;;;;;32.25;8.82;;;;;;;18.12;41.16;100056.59;5072010;28;20028;-79
2022/03/09 05:48:48;;;;;;;26.27;6.55;;;;;;;18.12;41.41;100054.63;5072398;28;20024;-79
2022/03/09 05:51:14;;;;;;;32.20;7.00;;;;;;;18.09;41.57;100060.94;5054520;28;20060;-79
2022/03/09 05:53:39;;;;;;;32.42;9.45;;;;;;;17.97;42.04;100061.97;5072531;28;20028;-79
2022/03/09 05:56:06;;;;;;;42.88;7.72;;;;;;;18.24;41.50;100048.03;5072228;28;20151;-80
2022/03/09 05:58:31;;;;;;;25.65;7.00;;;;;;;18.30;41.41;100055.59;5072552;28;20028;-79
2022/03/09 06:00:57;;;;;;;33.83;8.00;;;;;;;18.28;41.49;100060.69;5072424;28;20036;-79
2022/03/09 06:03:23;;;;;;;27.65;8.63;;;;;;;18.29;41.64;100051.25;5072441;28;20462;-79
2022/03/09 06:05:49;;;;;;;28.48;6.85;;;;;;;18.19;41.67;100053.91;5071930;28;20033;-79
2022/03/09 06:08:14;;;;;;;27.90;8.38;;;;;;;18.26;41.48;100054.75;5056582;28;20415;-79
2022/03/09 06:10:40;;;;;;;23.38;6.90;;;;;;;18.23;41.73;100063.03;5052201;28;20021;-79
2022/03/09 06:13:05;;;;;;;31.48;6.80;;;;;;;18.21;42.02;100052.38;5052222;28;20028;-78
2022/03/09 06:15:31;;;;;;;26.73;7.60;;;;;;;18.18;42.35;100060.59;5034604;28;20025;-79
2022/03/09 06:17:57;;;;;;;30.40;7.22;;;;;;;18.14;42.26;100054.28;5052168;28;20033;-79
2022/03/09 06:20:25;;;;;;;19.55;6.28;;;;;;;18.19;42.50;100051.13;5052141;28;20043;-79
2022/03/09 06:22:51;;;;;;;32.63;7.25;;;;;;;18.27;42.04;100053.56;5034250;28;20124;-79
2022/03/09 06:25:17;;;;;;;32.92;8.35;;;;;;;18.25;42.15;100050.41;5052113;28;20021;-80
2022/03/09 06:27:52;;;;;;;31.38;6.68;;;;;;;18.38;42.06;100047.38;5034224;28;20095;-79
2022/03/09 06:30:18;;;;;;;31.98;6.68;;;;;;;18.34;42.05;100050.09;5052051;28;20027;-79
2022/03/09 06:32:46;;;;;;;37.17;7.32;;;;;;;18.12;42.46;100051.06;5051960;28;20063;-79
2022/03/09 06:35:12;;;;;;;27.33;6.05;;;;;;;18.21;42.21;100051.53;5051950;28;20082;-79
2022/03/09 06:37:38;;;;;;;30.98;6.75;;;;;;;18.17;42.44;100048.75;5051943;28;20487;-79
2022/03/09 06:40:05;;;;;;;24.92;7.65;;;;;;;18.22;42.42;100042.88;5051856;28;20079;-80
2022/03/09 06:42:31;;;;;;;26.45;5.75;;;;;;;18.03;42.72;100054.94;5051835;28;20033;-79
2022/03/09 06:44:57;;;;;;;26.35;6.05;;;;;;;18.11;42.80;100047.50;5051960;28;20035;-79
2022/03/09 06:47:23;;;;;;;23.33;6.22;;;;;;;18.04;42.88;100052.97;5052039;28;20052;-79
2022/03/09 06:49:49;;;;;;;21.10;6.38;;;;;;;17.94;43.45;100059.19;5051944;28;20645;-79
2022/03/09 06:52:15;;;;;;;22.77;5.25;;;;;;;18.02;43.29;100064.41;5052015;28;20483;-78
2022/03/09 06:54:41;;;;;;;25.20;5.97;;;;;;;18.14;43.09;100063.34;5051942;28;20017;-80
2022/03/09 06:57:07;;;;;;;27.00;5.97;;;;;;;18.02;43.46;100055.31;5033839;28;20044;-80
2022/03/09 06:59:32;;;;;;;22.00;5.15;;;;;;;18.01;43.49;100068.34;5036906;28;20025;-80
2022/03/09 07:01:58;;;;;;;26.50;6.90;;;;;;;18.02;43.54;100058.09;5055584;28;20028;-80
2022/03/09 07:04:23;;;;;;;21.90;5.53;;;;;;;18.09;43.44;100054.59;5055549;28;20032;-80
2022/03/09 07:06:49;;;;;;;33.20;7.22;;;;;;;18.14;43.18;100068.09;5055511;28;20025;-81
2022/03/09 07:09:14;;;;;;;27.05;5.55;;;;;;;17.85;44.41;100056.72;5055316;28;20032;-81
2022/03/09 07:11:41;;;;;;;27.10;6.40;;;;;;;18.05;43.53;100068.38;5055340;28;20513;-80
2022/03/09 07:14:07;;;;;;;30.60;6.90;;;;;;;18.21;43.37;100076.44;5037384;28;20040;-80
2022/03/09 07:16:34;;;;;;;25.55;6.07;;;;;;;17.73;44.65;100052.25;5055284;28;20112;-80
2022/03/09 07:18:59;;;;;;;23.75;6.00;;;;;;;17.96;44.01;100059.59;5055294;28;20025;-80
2022/03/09 07:21:25;;;;;;;32.20;7.95;;;;;;;18.08;44.12;100056.56;5037253;28;20048;-79
2022/03/09 07:23:50;;;;;;;35.60;6.82;;;;;;;18.03;44.18;100037.56;5055216;28;20159;-80
2022/03/09 07:26:16;;;;;;;29.67;6.57;;;;;;;17.97;44.37;100052.91;5037057;28;20036;-80
2022/03/09 07:28:42;;;;;;;27.73;7.10;;;;;;;18.12;43.89;100042.78;5055007;28;20025;-79
2022/03/09 07:31:08;;;;;;;26.85;6.80;;;;;;;18.03;44.11;100051.38;5055134;28;20021;-78
2022/03/09 07:33:34;;;;;;;33.45;7.78;;;;;;;18.14;44.10;100049.53;5054917;28;20028;-77
2022/03/09 07:36:01;;;;;;;36.90;7.22;;;;;;;17.89;44.42;100049.25;5055004;28;20388;-79
2022/03/09 07:38:27;;;;;;;25.13;6.60;;;;;;;17.71;45.01;100051.06;5054760;28;20025;-80
2022/03/09 07:40:53;;;;;;;35.80;7.85;;;;;;;18.09;44.08;100043.53;5054835;28;20029;-79
2022/03/09 07:43:18;;;;;;;30.35;7.50;;;;;;;17.97;44.58;100041.84;5054840;28;20032;-79
2022/03/09 07:45:45;;;;;;;37.20;8.48;;;;;;;18.02;44.34;100053.34;5054533;28;20110;-79
2022/03/09 07:48:10;;;;;;;32.80;7.60;;;;;;;17.94;44.84;100054.47;5054811;28;20032;-79
2022/03/09 07:50:36;;;;;;;26.08;5.85;;;;;;;17.99;44.62;100040.31;5054767;28;20029;-81
2022/03/09 07:53:03;;;;;;;35.45;9.18;;;;;;;18.22;44.19;100044.88;5054351;28;20649;-78
2022/03/09 07:55:29;;;;;;;42.30;8.30;;;;;;;18.21;44.07;100041.31;5054442;28;20090;-81
2022/03/09 07:57:54;;;;;;;43.75;8.55;;;;;;;18.19;44.52;100054.69;5032925;28;20491;-82
2022/03/09 08:00:20;;;;;;;38.63;8.02;;;;;;;17.92;44.89;100050.50;5034684;28;20535;-76
2022/03/09 08:02:46;;;;;;;32.83;8.90;;;;;;;18.45;43.84;100067.59;5034645;28;20033;-77
2022/03/09 08:05:12;;;;;;;23.75;6.10;;;;;;;18.42;43.74;100057.25;5034564;28;20392;-77
2022/03/09 08:07:37;;;;;;;39.85;10.18;;;;;;;18.39;43.99;100073.84;5034508;28;20464;-77
2022/03/09 08:10:04;;;;;;;35.97;8.02;;;;;;;18.48;43.88;100060.47;5032664;28;20033;-82
2022/03/09 08:12:30;;;;;;;24.17;6.00;;;;;;;18.42;44.01;100067.53;5033083;28;20025;-77
2022/03/09 08:14:56;;;;;;;26.38;7.03;;;;;;;18.58;43.63;100062.53;5034362;28;20033;-77
2022/03/09 08:17:22;;;;;;;36.65;8.60;;;;;;;18.37;44.32;100060.41;5032901;28;20030;-78
2022/03/09 08:19:48;;;;;;;32.15;7.82;;;;;;;18.40;44.16;100058.84;5033795;28;20028;-77
2022/03/09 08:22:13;;;;;;;31.80;7.63;;;;;;;18.42;44.13;100064.78;5033776;28;20101;-78
2022/03/09 08:24:39;;;;;;;37.33;8.55;;;;;;;18.60;43.66;100068.50;5033425;28;20399;-76
2022/03/09 08:27:04;;;;;;;27.13;7.32;;;;;;;18.35;44.26;100068.25;5033657;28;20057;-77
2022/03/09 08:29:30;;;;;;;32.90;7.57;;;;;;;18.41;44.34;100077.81;5032549;28;20025;-77
2022/03/09 08:31:56;;;;;;;37.08;7.22;;;;;;;18.30;44.54;100076.94;5032335;28;20025;-80
2022/03/09 08:34:21;;;;;;;36.20;8.77;;;;;;;18.60;44.05;100078.78;5033004;28;20476;-76
2022/03/09 08:36:47;;;;;;;31.65;8.50;;;;;;;18.66;43.77;100071.72;5033109;28;20026;-83
2022/03/09 08:39:12;;;;;;;43.15;8.43;;;;;;;18.63;43.85;100089.06;5033235;28;20024;-76
2022/03/09 08:41:39;;;;;;;37.20;8.75;;;;;;;18.61;43.90;100091.41;5033401;28;20028;-76
2022/03/09 08:44:04;;;;;;;40.20;8.32;;;;;;;18.68;43.87;100102.56;5033540;28;20025;-82
2022/03/09 08:46:30;;;;;;;24.67;7.45;;;;;;;18.64;44.12;100091.44;5033895;28;20025;-76
2022/03/09 08:48:56;;;;;;;30.80;7.70;;;;;;;18.89;43.44;100096.38;5033706;28;20026;-77
2022/03/09 08:51:22;;;;;;;30.17;6.05;;;;;;;18.74;44.01;100101.03;5033709;28;20056;-77
2022/03/09 08:53:49;;;;;;;28.50;6.60;;;;;;;18.88;43.81;100111.41;5033611;28;20025;-76
2022/03/09 08:56:15;;;;;;;24.65;5.72;;;;;;;18.79;44.11;100107.00;5037071;28;20124;-78
2022/03/09 08:58:41;;;;;;;16.45;4.47;;;;;;;18.74;44.34;100099.06;5053475;28;20052;-76
2022/03/09 09:01:06;;;;;;;20.73;5.88;;;;;;;18.99;43.75;100107.56;5053464;28;20470;-77
2022/03/09 09:03:32;;;;;;;21.48;5.57;;;;;;;19.09;43.85;100095.75;5053305;28;20025;-76
2022/03/09 09:05:58;;;;;;;17.70;5.65;;;;;;;19.01;44.25;100096.09;5062186;28;20032;-81
2022/03/09 09:08:24;;;;;;;24.00;5.82;;;;;;;19.12;44.07;100086.69;5071945;28;20046;-78
2022/03/09 09:10:49;;;;;;;22.50;5.63;;;;;;;19.15;44.47;100098.16;5083914;28;20149;-78
2022/03/09 09:13:15;;;;;;;19.05;6.40;;;;;;;19.06;44.71;100081.88;5093222;28;20039;-77
2022/03/09 09:15:42;;;;;;;25.15;5.05;;;;;;;19.44;43.97;100082.50;5072978;28;20029;-77
2022/03/09 09:18:08;;;;;;;31.35;6.93;;;;;;;19.27;44.38;100090.34;5072795;28;20428;-78
2022/03/09 09:20:34;;;;;;;26.92;6.47;;;;;;;19.57;43.83;100100.38;5072717;28;20514;-78
2022/03/09 09:23:00;;;;;;;31.40;6.55;;;;;;;19.54;43.96;100093.63;5072770;28;20032;-79
2022/03/09 09:25:27;;;;;;;28.27;6.35;;;;;;;19.45;44.14;100084.88;5072731;28;20039;-81
2022/03/09 09:27:54;;;;;;;32.58;5.68;;;;;;;19.40;44.22;100085.22;5072860;28;20028;-76
2022/03/09 09:30:20;;;;;;;21.77;5.18;;;;;;;19.45;44.04;100081.31;5065157;28;20444;-78
2022/03/09 09:32:47;;;;;;;20.83;4.65;;;;;;;19.43;44.02;100103.06;5052696;28;20036;-81
2022/03/09 09:35:13;;;;;;;13.88;4.38;;;;;;;19.34;44.20;100090.34;5052717;28;20032;-79
2022/03/09 09:37:39;;;;;;;17.48;4.60;;;;;;;19.11;44.73;100087.03;5052699;28;20021;-77
2022/03/09 09:40:09;;;;;;;22.38;6.13;;;;;;;18.96;44.94;100102.78;5052632;28;20032;-76
2022/03/09 09:42:36;;;;;;;22.52;6.47;;;;;;;18.99;45.11;100090.94;5053821;28;20475;-76
2022/03/09 09:45:02;;;;;;;33.00;8.20;;;;;;;19.35;44.13;100100.25;5092387;28;20025;-78
2022/03/09 09:47:29;;;;;;;34.33;6.95;;;;;;;19.35;44.25;100089.19;5091306;28;20028;-77
2022/03/09 09:49:58;;;;;;;23.60;6.30;;;;;;;19.20;44.43;100087.53;5074697;28;20056;-77
2022/03/09 09:52:36;;;;;;;24.42;6.03;;;;;;;19.18;44.81;100098.16;5074445;28;20054;-77
2022/03/09 09:55:04;;;;;;;25.05;6.07;;;;;;;19.03;45.33;100097.28;5074394;28;20474;-77
2022/03/09 09:57:31;;;;;;;28.23;5.90;;;;;;;19.22;45.00;100106.50;5092393;28;20123;-76
2022/03/09 09:59:58;;;;;;;26.33;7.32;;;;;;;19.29;44.75;100098.25;5086980;28;20028;-76
2022/03/09 10:02:24;;;;;;;21.83;6.15;;;;;;;19.12;45.40;100117.16;5053740;28;20111;-81
2022/03/09 10:04:50;;;;;;;26.67;5.78;;;;;;;19.33;45.03;100105.38;5053914;28;20028;-76
2022/03/09 10:07:16;;;;;;;26.65;5.93;;;;;;;19.23;45.19;100103.34;5072492;28;20021;-80
2022/03/09 10:09:43;;;;;;;33.08;8.00;;;;;;;19.25;45.39;100108.50;5070313;28;20099;-76
2022/03/09 10:12:13;;;;;;;27.40;6.07;;;;;;;19.22;45.56;100100.97;5072237;28;20028;-78
2022/03/09 10:14:53;;;;;;;30.45;6.50;;;;;;;19.33;45.39;100110.13;5072372;28;20028;-81
2022/03/09 10:17:21;;;;;;;43.78;10.15;;;;;;;19.42;45.09;100124.41;5072281;28;20107;-82
2022/03/09 10:19:52;;;;;;;30.98;8.13;;;;;;;19.15;45.78;100118.34;5072134;28;20049;-81
2022/03/09 10:22:22;;;;;;;31.73;6.38;;;;;;;19.35;45.28;100114.13;5072199;28;20066;-81
2022/03/09 10:24:49;;;;;;;35.25;8.88;;;;;;;19.72;44.58;100110.34;5072190;28;20033;-80
2022/03/09 10:27:34;;;;;;;34.25;7.40;;;;;;;19.56;44.97;100124.50;5072012;28;20032;-80
2022/03/09 10:30:00;;;;;;;25.77;7.28;;;;;;;19.79;44.50;100120.66;5074110;28;20032;-76
2022/03/09 10:32:44;;;;;;;28.60;7.75;;;;;;;19.71;44.81;100119.03;5092245;28;20029;-81
2022/03/09 10:35:11;;;;;;;28.48;8.10;;;;;;;19.86;44.37;100132.56;5096407;28;20081;-77
2022/03/09 10:37:38;;;;;;;35.28;7.88;;;;;;;19.89;44.35;100139.31;5096289;28;20024;-77
2022/03/09 10:40:16;;;;;;;31.27;6.50;;;;;;;19.68;44.91;100137.25;5096156;28;20020;-80
2022/03/09 10:42:42;;;;;;;36.83;8.90;;;;;;;19.81;44.53;100141.28;5096214;28;20020;-81
2022/03/09 10:45:09;;;;;;;24.80;5.30;;;;;;;19.70;44.80;100132.13;5096323;28;20024;-81
2022/03/09 10:47:36;;;;;;;24.05;6.10;;;;;;;19.51;45.31;100137.94;5096135;28;20020;-81
2022/03/09 10:50:21;;;;;;;24.23;6.53;;;;;;;19.55;45.23;100145.06;5095954;28;20027;-76
2022/03/09 10:53:11;;;;;;;31.98;8.70;;;;;;;19.46;45.44;100125.25;5096006;28;20024;-82
2022/03/09 10:55:37;;;;;;;26.30;7.22;;;;;;;19.46;45.33;100128.00;5078020;28;20024;-81
2022/03/09 10:58:18;;;;;;;37.40;7.25;;;;;;;19.60;45.39;100146.72;5095987;28;20458;-82
2022/03/09 11:00:46;;;;;;;36.10;14.20;;;;;;;19.45;45.57;100145.03;5087086;28;20029;-76
2022/03/09 11:03:15;;;;;;;27.13;8.57;;;;;;;19.46;45.60;100143.84;5075581;28;20028;-79
2022/03/09 11:06:07;;;;;;;24.23;6.93;;;;;;;19.27;46.09;100154.03;5075358;28;20413;-81
2022/03/09 11:08:35;;;;;;;28.20;6.35;;;;;;;19.31;46.02;100152.06;5076169;28;20031;-81
2022/03/09 11:11:02;;;;;;;26.88;6.75;;;;;;;19.61;45.20;100138.00;5095771;28;20474;-81
2022/03/09 11:13:30;;;;;;;37.67;7.43;;;;;;;19.59;45.25;100142.38;5094299;28;20051;-81
2022/03/09 11:15:56;;;;;;;22.73;5.75;;;;;;;19.76;44.89;100147.19;5095623;28;20035;-81